createdAt,value
2023-03-02T00:01:54.574Z,49.35
2023-03-02T00:04:20.859Z,49.46
2023-03-02T00:06:47.165Z,49.27
2023-03-02T00:09:13.441Z,49.95
2023-03-02T00:11:39.704Z,49.42
2023-03-02T00:14:06.003Z,49.89
2023-03-02T00:16:32.591Z,49.16
2023-03-02T00:18:59.044Z,49.93
2023-03-02T00:21:25.315Z,49.61
2023-03-02T00:23:51.598Z,49.56
2023-03-02T00:26:17.916Z,49.18
2023-03-02T00:28:44.245Z,49.22
2023-03-02T00:31:10.583Z,49.61
2023-03-02T00:33:36.957Z,49.53
2023-03-02T00:36:03.298Z,49.65
2023-03-02T00:38:29.693Z,49.42
2023-03-02T00:40:55.964Z,49.51
2023-03-02T00:43:22.271Z,49.11
2023-03-02T00:45:48.568Z,49.67
2023-03-02T00:48:14.857Z,49.46
2023-03-02T00:50:41.236Z,49.41
2023-03-02T00:53:07.566Z,49.06
2023-03-02T00:55:33.837Z,49.48
2023-03-02T00:58:00.159Z,49.51
2023-03-02T01:00:26.412Z,49.49
2023-03-02T01:02:52.822Z,49.35
2023-03-02T01:05:19.154Z,49.51
2023-03-02T01:07:45.438Z,49.77
2023-03-02T01:10:11.748Z,49.63
2023-03-02T01:12:38.077Z,49.98
2023-03-02T01:15:04.372Z,49.35
2023-03-02T01:17:30.666Z,49.76
2023-03-02T01:22:47.649Z,50.00
2023-03-02T01:25:13.931Z,49.98
2023-03-02T01:27:40.198Z,49.45
2023-03-02T01:30:06.492Z,49.99
2023-03-02T01:32:32.821Z,49.83
2023-03-02T01:34:59.088Z,49.75
2023-03-02T01:37:25.342Z,49.72
2023-03-02T01:39:51.602Z,49.91
2023-03-02T01:42:17.865Z,49.87
2023-03-02T01:44:44.156Z,49.60
2023-03-02T01:47:10.458Z,49.82
2023-03-02T01:49:36.748Z,49.94
2023-03-02T01:52:03.024Z,50.18
2023-03-02T01:54:29.327Z,50.52
2023-03-02T01:56:55.581Z,50.54
2023-03-02T01:59:21.872Z,50.82
2023-03-02T02:01:48.171Z,50.98
2023-03-02T02:04:14.475Z,50.81
2023-03-02T02:06:40.797Z,50.77
2023-03-02T02:09:07.099Z,51.02
2023-03-02T02:11:33.410Z,51.05
2023-03-02T02:13:59.658Z,50.75
2023-03-02T02:16:25.961Z,50.92
2023-03-02T02:18:52.313Z,50.98
2023-03-02T02:21:18.607Z,50.78
2023-03-02T02:23:44.861Z,50.59
2023-03-02T02:26:11.168Z,50.81
2023-03-02T02:28:37.428Z,51.12
2023-03-02T02:31:03.696Z,50.95
2023-03-02T02:33:29.988Z,51.08
2023-03-02T02:35:56.259Z,51.01
2023-03-02T02:38:22.576Z,51.12
2023-03-02T02:40:48.843Z,51.02
2023-03-02T02:43:15.146Z,50.96
2023-03-02T02:45:41.430Z,51.57
2023-03-02T02:48:07.706Z,51.49
2023-03-02T02:50:33.981Z,51.49
2023-03-02T02:53:00.269Z,51.37
2023-03-02T02:55:26.539Z,51.61
2023-03-02T02:57:52.819Z,51.91
2023-03-02T03:00:19.108Z,51.66
2023-03-02T03:02:45.383Z,51.58
2023-03-02T03:05:11.678Z,51.78
2023-03-02T03:07:38.009Z,51.95
2023-03-02T03:10:04.364Z,51.61
2023-03-02T03:12:30.704Z,51.53
2023-03-02T03:14:56.979Z,51.76
2023-03-02T03:17:23.260Z,51.89
2023-03-02T03:19:49.518Z,51.59
2023-03-02T03:22:15.781Z,51.91
2023-03-02T03:24:42.053Z,51.93
2023-03-02T03:27:08.341Z,51.74
2023-03-02T03:29:34.604Z,51.78
2023-03-02T03:32:00.894Z,51.81
2023-03-02T03:34:27.196Z,52.04
2023-03-02T03:36:53.473Z,52.08
2023-03-02T03:39:19.775Z,52.35
2023-03-02T03:41:46.029Z,52.61
2023-03-02T03:44:12.288Z,52.42
2023-03-02T03:46:38.577Z,52.04
2023-03-02T03:49:04.869Z,52.50
2023-03-02T03:51:31.163Z,52.00
2023-03-02T03:53:57.439Z,52.18
2023-03-02T03:56:23.738Z,52.17
2023-03-02T03:58:50.038Z,52.43
2023-03-02T04:01:16.381Z,52.36
2023-03-02T04:03:42.650Z,51.87
2023-03-02T04:06:08.923Z,52.07
2023-03-02T04:08:35.190Z,51.87
2023-03-02T04:11:01.456Z,51.85
2023-03-02T04:13:27.721Z,52.18
2023-03-02T04:15:54.022Z,52.28
2023-03-02T04:18:20.312Z,52.33
2023-03-02T04:20:46.570Z,52.46
2023-03-02T04:23:12.837Z,52.50
2023-03-02T04:25:39.135Z,52.27
2023-03-02T04:28:05.425Z,52.02
2023-03-02T04:30:31.699Z,52.47
2023-03-02T04:32:57.980Z,52.17
2023-03-02T04:35:24.293Z,52.42
2023-03-02T04:37:50.590Z,52.41
2023-03-02T04:40:16.850Z,52.60
2023-03-02T04:42:43.111Z,52.34
2023-03-02T04:45:09.401Z,52.63
2023-03-02T04:47:35.663Z,52.79
2023-03-02T04:50:01.942Z,52.24
2023-03-02T04:52:28.209Z,52.22
2023-03-02T04:54:54.488Z,52.16
2023-03-02T04:57:20.747Z,52.28
2023-03-02T04:59:47.031Z,52.56
2023-03-02T05:02:13.413Z,52.47
2023-03-02T05:04:39.795Z,52.54
2023-03-02T05:07:06.090Z,52.54
2023-03-02T05:09:32.355Z,52.45
2023-03-02T05:11:58.658Z,52.38
2023-03-02T05:14:24.954Z,52.07
2023-03-02T05:16:51.259Z,52.13
2023-03-02T05:19:17.587Z,52.55
2023-03-02T05:21:43.870Z,52.66
2023-03-02T05:24:10.201Z,52.31
2023-03-02T05:26:36.493Z,52.49
2023-03-02T05:29:02.783Z,52.30
2023-03-02T05:31:29.101Z,52.28
2023-03-02T05:33:55.412Z,52.52
2023-03-02T05:36:23.315Z,52.27
2023-03-02T05:38:49.747Z,52.56
2023-03-02T05:41:16.033Z,52.17
2023-03-02T05:43:42.320Z,52.62
2023-03-02T05:46:08.583Z,52.28
2023-03-02T05:48:34.912Z,52.05
2023-03-02T05:51:01.165Z,52.16
2023-03-02T05:53:27.442Z,51.82
2023-03-02T05:55:53.740Z,52.11
2023-03-02T05:58:20.022Z,51.94
2023-03-02T06:00:46.287Z,51.45
2023-03-02T06:03:12.694Z,51.62
2023-03-02T06:05:39.057Z,51.38
2023-03-02T06:08:05.347Z,51.22
2023-03-02T06:10:31.642Z,51.15
2023-03-02T06:12:57.933Z,51.42
2023-03-02T06:15:24.244Z,51.78
2023-03-02T06:17:50.536Z,51.28
2023-03-02T06:20:16.795Z,51.35
2023-03-02T06:22:43.064Z,51.21
2023-03-02T06:25:09.343Z,50.95
2023-03-02T06:27:35.616Z,51.21
2023-03-02T06:30:01.883Z,51.21
2023-03-02T06:32:28.290Z,50.73
2023-03-02T06:34:54.638Z,51.09
2023-03-02T06:37:21.027Z,51.26
2023-03-02T06:39:47.361Z,50.67
2023-03-02T06:42:13.651Z,50.87
2023-03-02T06:44:39.931Z,51.23
2023-03-02T06:47:06.186Z,51.19
2023-03-02T06:49:32.466Z,51.46
2023-03-02T06:51:58.768Z,51.76
2023-03-02T06:54:25.043Z,51.54
2023-03-02T06:56:51.345Z,51.69
2023-03-02T06:59:17.610Z,51.97
2023-03-02T07:01:43.968Z,52.33
2023-03-02T07:04:10.256Z,51.83
2023-03-02T07:06:36.563Z,52.18
2023-03-02T07:09:02.830Z,52.26
2023-03-02T07:11:29.123Z,51.95
2023-03-02T07:13:55.462Z,51.61
2023-03-02T07:16:21.787Z,51.68
2023-03-02T07:18:48.077Z,51.88
2023-03-02T07:21:14.397Z,51.90
2023-03-02T07:23:40.710Z,52.04
2023-03-02T07:26:06.997Z,51.77
2023-03-02T07:28:33.260Z,51.49
2023-03-02T07:30:59.575Z,51.85
2023-03-02T07:33:26.215Z,51.85
2023-03-02T07:35:52.525Z,52.05
2023-03-02T07:38:18.824Z,52.07
2023-03-02T07:40:45.081Z,51.52
2023-03-02T07:43:11.354Z,51.88
2023-03-02T07:45:37.623Z,51.71
2023-03-02T07:48:03.882Z,51.95
2023-03-02T07:50:30.153Z,51.75
2023-03-02T07:52:58.552Z,51.59
2023-03-02T07:55:25.945Z,51.64
2023-03-02T07:57:52.249Z,51.93
2023-03-02T08:00:18.519Z,52.04
2023-03-02T08:02:44.838Z,52.14
2023-03-02T08:05:11.164Z,51.86
2023-03-02T08:07:37.429Z,51.75
2023-03-02T08:10:03.686Z,51.59
2023-03-02T08:12:29.953Z,52.15
2023-03-02T08:14:56.206Z,51.75
2023-03-02T08:17:22.521Z,51.82
2023-03-02T08:19:48.774Z,52.04
2023-03-02T08:22:15.059Z,52.00
2023-03-02T08:24:41.341Z,51.63
2023-03-02T08:27:07.624Z,51.94
2023-03-02T08:29:33.906Z,51.23
2023-03-02T08:32:00.328Z,51.37
2023-03-02T08:34:26.685Z,50.94
2023-03-02T08:36:53.264Z,51.32
2023-03-02T08:39:19.529Z,50.67
2023-03-02T08:41:45.845Z,50.63
2023-03-02T08:44:12.160Z,50.50
2023-03-02T08:46:38.499Z,51.13
2023-03-02T08:49:04.868Z,51.02
2023-03-02T08:51:31.379Z,51.17
2023-03-02T08:53:57.858Z,50.81
2023-03-02T08:56:24.183Z,50.88
2023-03-02T08:58:50.478Z,50.50
2023-03-02T09:01:16.868Z,50.91
2023-03-02T09:03:43.159Z,50.90
2023-03-02T09:06:09.505Z,50.70
2023-03-02T09:08:35.778Z,50.32
2023-03-02T09:11:04.567Z,50.47
2023-03-02T09:13:30.901Z,51.59
2023-03-02T09:15:57.194Z,50.41
2023-03-02T09:18:23.479Z,49.18
2023-03-02T09:20:49.749Z,49.40
2023-03-02T09:23:16.064Z,50.00
2023-03-02T09:25:43.020Z,49.57
2023-03-02T09:28:10.034Z,49.84
2023-03-02T09:30:36.296Z,49.47
2023-03-02T09:33:02.717Z,49.66
2023-03-02T09:35:29.166Z,49.56
2023-03-02T09:37:55.537Z,49.50
2023-03-02T09:40:21.874Z,49.28
2023-03-02T09:42:48.198Z,49.44
2023-03-02T09:45:14.485Z,49.33
2023-03-02T09:47:40.830Z,49.34
2023-03-02T09:50:07.142Z,49.01
2023-03-02T09:52:33.433Z,48.89
2023-03-02T09:54:59.690Z,48.21
2023-03-02T09:57:25.962Z,48.52
2023-03-02T09:59:52.266Z,48.75
2023-03-02T10:02:18.552Z,48.38
2023-03-02T10:04:44.854Z,48.45
2023-03-02T10:07:11.185Z,48.81
2023-03-02T10:09:37.548Z,48.53
2023-03-02T10:12:03.870Z,48.43
2023-03-02T10:14:30.155Z,48.26
2023-03-02T10:16:56.439Z,48.79
2023-03-02T10:19:22.718Z,48.15
2023-03-02T10:21:49.001Z,48.28
2023-03-02T10:24:15.399Z,48.20
2023-03-02T10:26:41.664Z,48.35
2023-03-02T10:29:07.930Z,48.61
2023-03-02T10:31:34.426Z,48.36
2023-03-02T10:34:00.753Z,48.78
2023-03-02T10:36:27.021Z,48.67
2023-03-02T10:38:53.300Z,48.20
2023-03-02T10:41:19.562Z,48.94
2023-03-02T10:43:45.817Z,49.34
2023-03-02T10:46:12.104Z,49.33
2023-03-02T10:48:40.897Z,48.73
2023-03-02T10:51:07.447Z,48.43
2023-03-02T10:53:33.728Z,48.36
2023-03-02T10:55:59.989Z,47.49
2023-03-02T10:58:26.285Z,47.91
2023-03-02T11:00:52.550Z,47.76
2023-03-02T11:03:18.823Z,47.76
2023-03-02T11:05:45.141Z,48.07
2023-03-02T11:08:11.474Z,47.81
2023-03-02T11:10:37.742Z,47.27
2023-03-02T11:13:04.025Z,46.68
2023-03-02T11:15:30.294Z,47.92
2023-03-02T11:17:56.590Z,46.02
2023-03-02T11:20:23.064Z,46.63
2023-03-02T11:22:49.390Z,46.96
2023-03-02T11:25:15.824Z,45.41
2023-03-02T11:27:42.217Z,45.82
2023-03-02T11:30:08.583Z,46.35
2023-03-02T11:32:34.941Z,45.97
2023-03-02T11:35:01.307Z,46.27
2023-03-02T11:37:27.671Z,45.56
2023-03-02T11:39:55.883Z,45.23
2023-03-02T11:42:22.422Z,45.29
2023-03-02T11:44:48.727Z,45.54
2023-03-02T11:47:15.073Z,45.49
2023-03-02T11:49:41.361Z,46.38
2023-03-02T11:52:07.656Z,45.90
2023-03-02T11:54:34.043Z,45.45
2023-03-02T11:57:00.326Z,45.21
2023-03-02T11:59:28.525Z,46.04
2023-03-02T12:01:55.371Z,46.31
2023-03-02T12:04:21.735Z,46.76
2023-03-02T12:06:48.036Z,46.11
2023-03-02T12:09:14.349Z,44.70
2023-03-02T12:11:40.662Z,46.52
2023-03-02T12:14:06.959Z,46.06
2023-03-02T12:16:33.577Z,44.79
2023-03-02T12:19:00.058Z,45.05
2023-03-02T12:21:26.373Z,45.98
2023-03-02T12:23:52.756Z,45.51
2023-03-02T12:26:19.042Z,45.84
2023-03-02T12:28:45.361Z,44.25
2023-03-02T12:31:11.715Z,44.51
2023-03-02T12:33:38.051Z,43.84
2023-03-02T12:36:04.340Z,45.28
2023-03-02T12:38:30.652Z,45.13
2023-03-02T12:40:56.995Z,44.37
2023-03-02T12:43:23.277Z,44.88
2023-03-02T12:45:49.586Z,43.29
2023-03-02T12:48:15.869Z,43.40
2023-03-02T12:50:42.178Z,43.56
2023-03-02T12:53:08.451Z,44.54
2023-03-02T12:55:34.846Z,44.37
2023-03-02T12:58:01.186Z,45.08
2023-03-02T13:00:27.485Z,44.25
2023-03-02T13:02:53.938Z,44.69
2023-03-02T13:05:20.321Z,44.63
2023-03-02T13:07:46.607Z,44.32
2023-03-02T13:10:12.893Z,43.32
2023-03-02T13:12:39.181Z,43.39
2023-03-02T13:15:05.468Z,42.21
2023-03-02T13:17:31.786Z,42.96
2023-03-02T13:19:58.073Z,42.89
2023-03-02T13:22:24.414Z,42.97
2023-03-02T13:24:50.691Z,43.57
2023-03-02T13:27:16.980Z,42.35
2023-03-02T13:29:43.276Z,44.33
2023-03-02T13:32:09.571Z,42.06
2023-03-02T13:34:35.904Z,41.96
2023-03-02T13:37:02.181Z,42.37
2023-03-02T13:39:28.463Z,41.98
2023-03-02T13:41:54.732Z,42.64
2023-03-02T13:44:21.036Z,42.49
2023-03-02T13:46:47.359Z,42.44
2023-03-02T13:49:13.697Z,42.80
2023-03-02T13:51:40.004Z,42.02
2023-03-02T13:54:06.277Z,42.65
2023-03-02T13:56:32.845Z,42.14
2023-03-02T13:58:59.322Z,42.50
2023-03-02T14:01:25.613Z,41.75
2023-03-02T14:03:51.924Z,42.13
2023-03-02T14:06:18.213Z,42.79
2023-03-02T14:08:44.497Z,42.18
2023-03-02T14:11:10.808Z,41.50
2023-03-02T14:13:37.085Z,41.74
2023-03-02T14:16:03.445Z,42.23
2023-03-02T14:18:29.794Z,40.58
2023-03-02T14:20:56.088Z,42.03
2023-03-02T14:23:22.410Z,41.05
2023-03-02T14:25:48.733Z,40.26
2023-03-02T14:28:15.017Z,40.85
2023-03-02T14:30:41.301Z,39.80
2023-03-02T14:33:07.628Z,41.08
2023-03-02T14:35:33.948Z,40.70
2023-03-02T14:38:00.277Z,41.09
2023-03-02T14:40:26.557Z,40.02
2023-03-02T14:42:52.836Z,39.65
2023-03-02T14:45:19.173Z,39.70
2023-03-02T14:47:45.434Z,40.07
2023-03-02T14:50:11.736Z,40.78
2023-03-02T14:52:38.027Z,39.97
2023-03-02T14:55:04.316Z,40.23
2023-03-02T14:57:30.641Z,40.31
2023-03-02T14:59:56.927Z,39.67
2023-03-02T15:02:26.069Z,40.31
2023-03-02T15:04:54.981Z,40.01
2023-03-02T15:07:22.220Z,40.01
2023-03-02T15:09:48.528Z,40.10
2023-03-02T15:12:14.890Z,39.61
2023-03-02T15:14:41.203Z,38.87
2023-03-02T15:17:07.572Z,39.49
2023-03-02T15:19:33.851Z,40.02
2023-03-02T15:22:02.224Z,39.16
2023-03-02T15:24:29.862Z,39.15
2023-03-02T15:26:57.070Z,39.57
2023-03-02T15:29:23.332Z,39.35
2023-03-02T15:31:49.643Z,39.57
2023-03-02T15:34:15.929Z,40.06
2023-03-02T15:36:42.202Z,40.20
2023-03-02T15:39:08.487Z,40.30
2023-03-02T15:41:35.094Z,40.29
2023-03-02T15:44:01.627Z,40.40
2023-03-02T15:46:28.001Z,40.35
2023-03-02T15:48:54.315Z,40.93
2023-03-02T15:51:20.611Z,40.49
2023-03-02T15:53:46.940Z,40.31
2023-03-02T15:56:13.238Z,39.98
2023-03-02T15:58:39.575Z,40.43
2023-03-02T16:01:05.885Z,40.59
2023-03-02T16:03:32.223Z,40.93
2023-03-02T16:05:58.541Z,40.31
2023-03-02T16:08:24.858Z,40.65
2023-03-02T16:10:51.189Z,40.60
2023-03-02T16:13:17.505Z,40.85
2023-03-02T16:15:43.788Z,40.25
2023-03-02T16:18:10.133Z,40.35
2023-03-02T16:20:36.406Z,40.62
2023-03-02T16:23:02.680Z,40.75
2023-03-02T16:25:28.979Z,41.31
2023-03-02T16:27:55.275Z,41.34
2023-03-02T16:30:23.455Z,41.59
2023-03-02T16:32:50.030Z,41.73
2023-03-02T16:35:16.370Z,40.97
2023-03-02T16:37:42.785Z,41.97
2023-03-02T16:40:09.103Z,41.71
2023-03-02T16:42:35.379Z,42.15
2023-03-02T16:45:01.660Z,41.86
2023-03-02T16:47:27.968Z,41.74
2023-03-02T16:49:54.375Z,42.29
2023-03-02T16:52:20.689Z,42.89
2023-03-02T16:54:47.016Z,42.79
2023-03-02T16:57:13.326Z,42.38
2023-03-02T16:59:39.602Z,42.87
2023-03-02T17:02:05.948Z,43.18
2023-03-02T17:04:32.278Z,43.34
2023-03-02T17:07:00.820Z,42.75
2023-03-02T17:09:27.510Z,43.49
2023-03-02T17:11:53.785Z,43.35
2023-03-02T17:14:20.117Z,43.59
2023-03-02T17:16:46.427Z,43.97
2023-03-02T17:19:12.812Z,43.78
2023-03-02T17:21:39.086Z,44.39
2023-03-02T17:24:05.409Z,44.39
2023-03-02T17:26:31.708Z,44.82
2023-03-02T17:28:57.985Z,44.82
2023-03-02T17:31:24.294Z,44.84
2023-03-02T17:33:50.630Z,44.63
2023-03-02T17:36:16.901Z,44.54
2023-03-02T17:38:43.176Z,44.54
2023-03-02T17:41:09.443Z,44.96
2023-03-02T17:43:35.767Z,45.80
2023-03-02T17:46:02.119Z,45.35
2023-03-02T17:48:28.411Z,46.11
2023-03-02T17:50:54.695Z,45.80
2023-03-02T17:53:20.974Z,45.87
2023-03-02T17:55:47.264Z,46.41
2023-03-02T17:58:13.536Z,46.53
2023-03-02T18:00:39.816Z,46.33
2023-03-02T18:03:06.108Z,46.35
2023-03-02T18:05:32.393Z,46.65
2023-03-02T18:07:58.673Z,46.46
2023-03-02T18:10:25.004Z,46.86
2023-03-02T18:12:53.426Z,46.40
2023-03-02T18:15:20.664Z,46.81
2023-03-02T18:17:46.945Z,46.55
2023-03-02T18:20:13.230Z,46.92
2023-03-02T18:22:39.490Z,46.97
2023-03-02T18:25:05.816Z,46.48
2023-03-02T18:27:32.166Z,46.94
2023-03-02T18:29:58.483Z,46.59
2023-03-02T18:32:24.808Z,46.68
2023-03-02T18:34:51.165Z,46.59
2023-03-02T18:37:17.448Z,46.55
2023-03-02T18:39:43.773Z,46.72
2023-03-02T18:42:12.499Z,46.53
2023-03-02T18:44:38.963Z,46.81
2023-03-02T18:47:05.244Z,47.09
2023-03-02T18:49:31.521Z,46.86
2023-03-02T18:51:57.829Z,46.57
2023-03-02T18:54:24.127Z,46.73
2023-03-02T18:56:50.399Z,47.17
2023-03-02T18:59:16.727Z,47.36
2023-03-02T19:01:43.072Z,47.24
2023-03-02T19:04:09.386Z,47.26
2023-03-02T19:06:35.661Z,47.43
2023-03-02T19:09:01.929Z,47.37
2023-03-02T19:11:28.220Z,47.77
2023-03-02T19:13:54.597Z,47.68
2023-03-02T19:16:20.919Z,48.06
2023-03-02T19:18:47.283Z,48.05
2023-03-02T19:21:13.573Z,48.21
2023-03-02T19:23:39.845Z,47.97
2023-03-02T19:26:06.133Z,47.94
2023-03-02T19:28:32.414Z,47.95
2023-03-02T19:30:58.685Z,48.07
2023-03-02T19:33:25.029Z,48.16
2023-03-02T19:35:51.396Z,48.15
2023-03-02T19:38:17.723Z,48.30
2023-03-02T19:40:44.050Z,48.41
2023-03-02T19:43:10.373Z,48.42
2023-03-02T19:45:36.731Z,48.88
2023-03-02T19:48:03.024Z,48.63
2023-03-02T19:50:29.325Z,48.99
2023-03-02T19:52:55.594Z,48.88
2023-03-02T19:55:21.893Z,49.21
2023-03-02T19:57:48.202Z,48.89
2023-03-02T20:00:14.498Z,49.43
2023-03-02T20:02:40.805Z,49.31
2023-03-02T20:05:07.336Z,49.54
2023-03-02T20:07:33.639Z,50.19
2023-03-02T20:09:59.901Z,50.47
2023-03-02T20:12:26.177Z,49.98
2023-03-02T20:14:52.472Z,50.17
2023-03-02T20:17:18.737Z,50.39
2023-03-02T20:19:45.022Z,50.26
2023-03-02T20:22:11.318Z,50.13
2023-03-02T20:24:37.688Z,50.10
2023-03-02T20:27:04.013Z,49.99
2023-03-02T20:29:30.279Z,49.99
2023-03-02T20:31:56.624Z,49.99
2023-03-02T20:34:22.962Z,49.95
2023-03-02T20:36:49.232Z,50.28
2023-03-02T20:39:15.519Z,50.45
2023-03-02T20:41:41.804Z,50.18
2023-03-02T20:44:08.219Z,50.25
2023-03-02T20:46:34.547Z,49.78
2023-03-02T20:49:00.958Z,49.68
2023-03-02T20:51:27.370Z,50.02
2023-03-02T20:53:53.673Z,49.94
2023-03-02T20:56:19.976Z,49.81
2023-03-02T20:58:46.316Z,49.35
2023-03-02T21:01:12.709Z,49.76
2023-03-02T21:03:39.021Z,49.76
2023-03-02T21:06:06.356Z,49.33
2023-03-02T21:08:34.111Z,49.40
2023-03-02T21:11:00.586Z,49.56
2023-03-02T21:13:27.134Z,49.42
2023-03-02T21:15:53.636Z,49.83
2023-03-02T21:18:19.969Z,49.54
2023-03-02T21:20:48.784Z,49.93
2023-03-02T21:23:15.101Z,49.62
2023-03-02T21:25:42.466Z,49.97
2023-03-02T21:28:08.831Z,49.81
2023-03-02T21:30:35.185Z,50.29
2023-03-02T21:33:01.545Z,50.13
2023-03-02T21:35:27.867Z,49.92
2023-03-02T21:37:54.212Z,50.12
2023-03-02T21:40:20.485Z,50.46
2023-03-02T21:42:46.833Z,50.94
2023-03-02T21:45:13.119Z,51.10
2023-03-02T21:47:39.411Z,51.40
2023-03-02T21:50:05.744Z,51.34
2023-03-02T21:52:32.028Z,51.55
2023-03-02T21:54:58.317Z,51.98
2023-03-02T21:57:24.600Z,51.54
2023-03-02T21:59:50.890Z,51.90
2023-03-02T22:02:17.233Z,52.30
2023-03-02T22:04:43.566Z,52.52
2023-03-02T22:07:09.857Z,52.27
2023-03-02T22:09:36.151Z,53.37
2023-03-02T22:12:02.455Z,52.84
2023-03-02T22:14:28.748Z,53.23
2023-03-02T22:16:55.061Z,53.42
2023-03-02T22:19:21.342Z,53.46
2023-03-02T22:21:47.616Z,53.88
2023-03-02T22:24:13.922Z,54.05
2023-03-02T22:26:40.234Z,54.28
2023-03-02T22:29:06.539Z,53.62
2023-03-02T22:31:32.869Z,54.04
2023-03-02T22:33:59.163Z,53.89
2023-03-02T22:36:25.450Z,54.25
2023-03-02T22:38:51.750Z,53.62
2023-03-02T22:41:18.030Z,54.28
2023-03-02T22:43:44.305Z,54.46
2023-03-02T22:46:10.598Z,54.09
2023-03-02T22:48:36.854Z,54.31
2023-03-02T22:51:03.149Z,54.50
2023-03-02T22:53:29.448Z,55.33
2023-03-02T22:55:55.743Z,54.71
2023-03-02T22:58:22.024Z,54.67
2023-03-02T23:00:48.366Z,54.57
2023-03-02T23:03:17.265Z,54.59
2023-03-02T23:05:43.838Z,54.19
2023-03-02T23:08:10.104Z,54.73
2023-03-02T23:10:36.379Z,54.15
2023-03-02T23:13:02.653Z,54.00
2023-03-02T23:15:28.925Z,54.22
2023-03-02T23:17:55.224Z,54.20
2023-03-02T23:20:21.550Z,54.82
2023-03-02T23:22:48.037Z,53.73
2023-03-02T23:25:14.351Z,54.26
2023-03-02T23:27:40.615Z,53.86
2023-03-02T23:30:06.873Z,54.44
2023-03-02T23:32:33.277Z,54.55
2023-03-02T23:34:59.555Z,54.61
2023-03-02T23:37:25.830Z,54.85
2023-03-02T23:39:52.110Z,54.59
2023-03-02T23:42:18.382Z,54.05
2023-03-02T23:44:44.666Z,54.65
2023-03-02T23:47:10.929Z,54.23
2023-03-02T23:49:37.183Z,55.33
2023-03-02T23:52:03.459Z,55.08
2023-03-02T23:54:29.719Z,54.34
2023-03-02T23:56:56.021Z,54.34
2023-03-02T23:59:22.349Z,54.58
